createdAt,value
2022-10-16T00:01:44.264Z,1.20
2022-10-16T00:04:11.842Z,1.10
2022-10-16T00:06:39.506Z,1.47
2022-10-16T00:09:07.455Z,1.20
2022-10-16T00:11:40.145Z,1.20
2022-10-16T00:14:11.175Z,1.30
2022-10-16T00:16:38.875Z,1.10
2022-10-16T00:19:06.733Z,1.10
2022-10-16T00:21:34.259Z,1.20
2022-10-16T00:24:05.303Z,1.00
2022-10-16T00:26:34.036Z,1.20
2022-10-16T00:29:01.689Z,1.20
2022-10-16T00:31:29.316Z,1.20
2022-10-16T00:33:57.007Z,1.20
2022-10-16T00:36:26.738Z,1.00
2022-10-16T00:41:33.377Z,1.00
2022-10-16T00:44:02.831Z,1.20
2022-10-16T00:46:38.724Z,1.20
2022-10-16T00:49:10.519Z,1.00
2022-10-16T00:51:43.650Z,1.00
2022-10-16T00:54:26.676Z,1.00
2022-10-16T00:56:55.159Z,1.10
2022-10-16T00:59:28.569Z,1.00
2022-10-16T01:01:56.762Z,1.10
2022-10-16T01:04:25.380Z,1.00
2022-10-16T01:07:12.730Z,0.90
2022-10-16T01:09:45.830Z,1.00
2022-10-16T01:12:51.726Z,1.00
2022-10-16T01:15:22.910Z,0.90
2022-10-16T01:18:10.202Z,0.97
2022-10-16T01:20:56.752Z,1.00
2022-10-16T01:23:32.794Z,0.90
2022-10-16T01:26:39.866Z,1.03
2022-10-16T01:29:11.253Z,0.90
2022-10-16T01:31:41.306Z,1.00
2022-10-16T01:34:18.119Z,0.97
2022-10-16T01:36:57.751Z,1.10
2022-10-16T01:39:34.702Z,1.00
2022-10-16T01:42:16.002Z,0.90
2022-10-16T01:44:44.246Z,0.87
2022-10-16T01:47:12.624Z,0.90
2022-10-16T01:49:41.010Z,0.90
2022-10-16T01:52:12.479Z,1.10
2022-10-16T01:54:43.381Z,0.87
2022-10-16T01:57:11.972Z,0.90
2022-10-16T01:59:48.268Z,0.90
2022-10-16T02:02:16.973Z,0.83
2022-10-16T02:04:50.222Z,0.90
2022-10-16T02:07:17.842Z,0.90
2022-10-16T02:09:45.487Z,0.93
2022-10-16T02:12:28.324Z,0.80
2022-10-16T02:14:56.299Z,0.80
2022-10-16T02:17:24.950Z,0.80
2022-10-16T02:19:54.907Z,0.90
2022-10-16T02:22:39.561Z,0.70
2022-10-16T02:25:18.938Z,0.80
2022-10-16T02:28:09.861Z,0.80
2022-10-16T02:30:45.617Z,0.80
2022-10-16T02:33:14.668Z,0.90
2022-10-16T02:35:42.977Z,0.80
2022-10-16T02:40:43.756Z,0.90
2022-10-16T02:43:11.393Z,0.80
2022-10-16T02:45:39.038Z,0.80
2022-10-16T02:48:07.117Z,0.80
2022-10-16T02:50:34.697Z,0.70
2022-10-16T02:53:02.364Z,0.80
2022-10-16T02:55:29.836Z,0.80
2022-10-16T02:57:57.561Z,0.70
2022-10-16T03:00:25.163Z,0.70
2022-10-16T03:02:52.599Z,0.80
2022-10-16T03:07:53.645Z,0.80
2022-10-16T03:10:21.226Z,0.80
2022-10-16T03:12:48.723Z,0.90
2022-10-16T03:15:16.129Z,0.70
2022-10-16T03:17:44.185Z,0.87
2022-10-16T03:20:11.910Z,0.80
2022-10-16T03:22:39.335Z,0.80
2022-10-16T03:25:07.212Z,0.60
2022-10-16T03:27:34.631Z,0.80
2022-10-16T03:30:02.026Z,0.80
2022-10-16T03:32:29.620Z,0.70
2022-10-16T03:34:57.979Z,0.70
2022-10-16T03:37:26.095Z,0.70
2022-10-16T03:39:54.010Z,0.70
2022-10-16T03:42:21.562Z,0.80
2022-10-16T03:44:48.975Z,0.80
2022-10-16T03:47:16.493Z,0.70
2022-10-16T03:49:43.940Z,0.60
2022-10-16T03:52:11.393Z,0.60
2022-10-16T03:54:38.940Z,0.70
2022-10-16T03:57:06.381Z,0.80
2022-10-16T03:59:33.838Z,0.60
2022-10-16T04:02:01.294Z,0.70
2022-10-16T04:04:28.670Z,0.70
2022-10-16T04:06:56.064Z,0.80
2022-10-16T04:09:23.628Z,0.70
2022-10-16T04:11:51.687Z,0.67
2022-10-16T04:14:19.132Z,0.70
2022-10-16T04:16:46.545Z,0.60
2022-10-16T04:19:14.288Z,0.63
2022-10-16T04:21:41.665Z,0.80
2022-10-16T04:24:09.106Z,0.70
2022-10-16T04:26:36.576Z,0.70
2022-10-16T04:29:04.095Z,0.70
2022-10-16T04:31:31.578Z,0.70
2022-10-16T04:33:58.997Z,0.60
2022-10-16T04:36:28.450Z,0.70
2022-10-16T04:38:56.894Z,0.70
2022-10-16T04:41:24.468Z,0.70
2022-10-16T04:43:52.082Z,0.60
2022-10-16T04:46:19.675Z,0.70
2022-10-16T04:48:47.812Z,0.70
2022-10-16T04:51:15.308Z,0.80
2022-10-16T04:53:42.764Z,0.60
2022-10-16T04:56:10.184Z,0.80
2022-10-16T04:58:37.635Z,0.60
2022-10-16T05:01:05.199Z,0.70
2022-10-16T05:03:32.658Z,0.70
2022-10-16T05:06:00.216Z,0.70
2022-10-16T05:08:27.708Z,0.60
2022-10-16T05:10:55.134Z,0.60
2022-10-16T05:13:24.134Z,0.60
2022-10-16T05:15:51.606Z,0.70
2022-10-16T05:18:19.064Z,0.70
2022-10-16T05:20:46.603Z,0.70
2022-10-16T05:25:58.948Z,0.70
2022-10-16T05:28:27.629Z,0.70
2022-10-16T05:30:55.490Z,0.60
2022-10-16T05:33:24.052Z,0.70
2022-10-16T05:35:52.361Z,0.60
2022-10-16T05:38:20.098Z,0.70
2022-10-16T05:40:53.907Z,0.60
2022-10-16T05:43:22.392Z,0.60
2022-10-16T05:45:56.847Z,0.60
2022-10-16T05:48:24.876Z,0.60
2022-10-16T05:51:18.415Z,0.70
2022-10-16T05:53:45.887Z,0.60
2022-10-16T05:56:13.837Z,0.60
2022-10-16T05:58:42.077Z,0.63
2022-10-16T06:01:13.385Z,0.63
2022-10-16T06:03:41.273Z,0.60
2022-10-16T06:06:12.487Z,0.63
2022-10-16T06:08:40.639Z,0.70
2022-10-16T06:11:10.874Z,0.60
2022-10-16T06:13:38.474Z,0.60
2022-10-16T06:16:06.562Z,0.70
2022-10-16T06:18:34.194Z,0.60
2022-10-16T06:21:07.389Z,0.60
2022-10-16T06:23:34.979Z,0.60
2022-10-16T06:26:13.112Z,0.70
2022-10-16T06:28:40.902Z,0.60
2022-10-16T06:31:10.033Z,0.60
2022-10-16T06:33:38.574Z,0.70
2022-10-16T06:36:09.198Z,0.60
2022-10-16T06:38:37.507Z,0.70
2022-10-16T06:41:05.980Z,0.70
2022-10-16T06:43:36.149Z,0.50
2022-10-16T06:46:05.667Z,0.60
2022-10-16T06:48:33.373Z,0.57
2022-10-16T06:51:18.310Z,0.60
2022-10-16T06:54:06.144Z,0.60
2022-10-16T06:56:34.777Z,0.60
2022-10-16T06:59:02.487Z,0.60
2022-10-16T07:01:30.301Z,0.70
2022-10-16T07:03:58.332Z,0.60
2022-10-16T07:06:27.197Z,0.60
2022-10-16T07:08:54.619Z,0.70
2022-10-16T07:11:24.140Z,0.60
2022-10-16T07:13:55.065Z,0.60
2022-10-16T07:16:26.160Z,0.70
2022-10-16T07:18:59.474Z,0.63
2022-10-16T07:21:36.954Z,0.70
2022-10-16T07:24:11.462Z,0.70
2022-10-16T07:26:40.270Z,0.60
2022-10-16T07:29:22.085Z,0.67
2022-10-16T07:31:50.313Z,0.60
2022-10-16T07:34:19.388Z,0.60
2022-10-16T07:36:50.144Z,0.70
2022-10-16T07:39:18.009Z,0.60
2022-10-16T07:41:45.450Z,0.60
2022-10-16T07:44:13.033Z,0.60
2022-10-16T07:46:40.531Z,0.60
2022-10-16T07:49:08.250Z,0.70
2022-10-16T07:51:35.747Z,0.60
2022-10-16T07:54:03.192Z,0.60
2022-10-16T07:56:32.911Z,0.60
2022-10-16T07:59:00.360Z,0.70
2022-10-16T08:01:27.922Z,0.60
2022-10-16T08:03:55.490Z,0.70
2022-10-16T08:06:27.562Z,0.67
2022-10-16T08:08:56.825Z,0.60
2022-10-16T08:11:24.524Z,0.70
2022-10-16T08:13:51.963Z,0.70
2022-10-16T08:16:19.488Z,0.70
2022-10-16T08:18:46.881Z,0.70
2022-10-16T08:21:21.360Z,0.70
2022-10-16T08:23:54.606Z,0.70
2022-10-16T08:26:26.564Z,0.60
2022-10-16T08:28:54.261Z,0.60
2022-10-16T08:31:22.291Z,0.67
2022-10-16T08:33:49.747Z,0.60
2022-10-16T08:36:17.637Z,0.67
2022-10-16T08:38:45.198Z,0.60
2022-10-16T08:41:15.602Z,0.60
2022-10-16T08:44:12.169Z,0.70
2022-10-16T08:47:10.878Z,0.80
2022-10-16T08:49:40.328Z,0.83
2022-10-16T08:52:13.982Z,0.80
2022-10-16T08:54:48.212Z,1.00
2022-10-16T08:57:21.599Z,0.97
2022-10-16T08:59:52.364Z,0.80
2022-10-16T09:02:39.213Z,0.90
2022-10-16T09:05:28.474Z,1.00
2022-10-16T09:08:23.755Z,0.87
2022-10-16T09:11:04.885Z,0.87
2022-10-16T09:14:01.185Z,0.80
2022-10-16T09:16:42.305Z,1.00
2022-10-16T09:19:15.621Z,1.13
2022-10-16T09:21:44.846Z,1.03
2022-10-16T09:24:18.217Z,0.90
2022-10-16T09:26:46.348Z,1.00
2022-10-16T09:29:20.894Z,0.90
2022-10-16T09:31:48.534Z,0.80
2022-10-16T09:34:28.180Z,1.00
2022-10-16T09:36:55.703Z,1.20
2022-10-16T09:39:23.162Z,1.00
2022-10-16T09:41:51.109Z,1.20
2022-10-16T09:44:32.404Z,1.10
2022-10-16T09:47:40.514Z,1.20
2022-10-16T09:50:28.665Z,1.00
2022-10-16T09:53:06.735Z,0.80
2022-10-16T09:55:34.165Z,1.00
2022-10-16T09:58:01.590Z,0.90
2022-10-16T10:00:30.905Z,1.00
2022-10-16T10:02:58.377Z,0.90
2022-10-16T10:05:27.728Z,0.80
2022-10-16T10:08:00.596Z,0.90
2022-10-16T10:10:33.951Z,1.00
2022-10-16T10:13:01.460Z,0.90
2022-10-16T10:15:35.703Z,0.90
2022-10-16T10:18:04.249Z,1.03
2022-10-16T10:20:35.596Z,1.30
2022-10-16T10:23:20.191Z,1.10
2022-10-16T10:25:50.602Z,1.07
2022-10-16T10:28:48.365Z,1.00
2022-10-16T10:31:18.798Z,1.10
2022-10-16T10:34:00.414Z,1.07
2022-10-16T10:36:30.535Z,1.17
2022-10-16T10:39:09.943Z,1.30
2022-10-16T10:41:58.773Z,1.40
2022-10-16T10:44:44.520Z,1.23
2022-10-16T10:47:25.684Z,1.10
2022-10-16T10:50:18.373Z,1.20
2022-10-16T10:53:05.351Z,1.30
2022-10-16T10:55:46.704Z,1.37
2022-10-16T10:58:29.979Z,1.10
2022-10-16T11:01:11.286Z,1.30
2022-10-16T11:03:58.185Z,1.00
2022-10-16T11:06:30.524Z,1.20
2022-10-16T11:09:16.339Z,1.20
2022-10-16T11:12:04.060Z,1.40
2022-10-16T11:14:36.016Z,1.20
2022-10-16T11:17:10.304Z,1.10
2022-10-16T11:20:04.723Z,1.30
2022-10-16T11:22:40.826Z,1.00
2022-10-16T11:25:19.720Z,1.17
2022-10-16T11:28:15.216Z,1.10
2022-10-16T11:30:53.321Z,1.20
2022-10-16T11:33:41.008Z,1.30
2022-10-16T11:36:33.879Z,1.20
2022-10-16T11:39:13.092Z,1.20
2022-10-16T11:42:00.842Z,1.10
2022-10-16T11:44:46.925Z,1.40
2022-10-16T11:47:57.974Z,1.30
2022-10-16T11:50:38.508Z,1.20
2022-10-16T11:53:44.191Z,1.50
2022-10-16T11:56:15.088Z,1.50
2022-10-16T11:59:09.537Z,1.40
2022-10-16T12:01:47.981Z,1.20
2022-10-16T12:04:23.129Z,1.50
2022-10-16T12:06:58.023Z,1.57
2022-10-16T12:09:32.039Z,1.33
2022-10-16T12:12:00.000Z,1.47
2022-10-16T12:14:30.092Z,1.47
2022-10-16T12:17:22.282Z,1.37
2022-10-16T12:20:17.633Z,1.53
2022-10-16T12:22:55.492Z,1.30
2022-10-16T12:25:29.024Z,1.40
2022-10-16T12:28:05.036Z,1.30
2022-10-16T12:30:36.030Z,1.50
2022-10-16T12:33:17.228Z,1.40
2022-10-16T12:35:46.437Z,1.47
2022-10-16T12:38:41.946Z,1.40
2022-10-16T12:41:11.642Z,1.50
2022-10-16T12:43:43.840Z,1.30
2022-10-16T12:46:11.195Z,1.30
2022-10-16T12:48:48.842Z,1.40
2022-10-16T12:51:35.937Z,1.43
2022-10-16T12:54:16.144Z,1.50
2022-10-16T12:56:56.640Z,1.50
2022-10-16T12:59:42.382Z,1.40
2022-10-16T13:02:15.604Z,1.30
2022-10-16T13:05:01.530Z,1.50
2022-10-16T13:08:00.410Z,1.33
2022-10-16T13:10:51.902Z,1.50
2022-10-16T13:13:44.329Z,1.57
2022-10-16T13:16:14.815Z,1.50
2022-10-16T13:19:02.049Z,1.30
2022-10-16T13:21:38.873Z,1.30
2022-10-16T13:24:21.152Z,1.33
2022-10-16T13:26:59.888Z,1.43
2022-10-16T13:29:32.865Z,1.30
2022-10-16T13:32:02.734Z,1.27
2022-10-16T13:34:30.800Z,1.60
2022-10-16T13:36:58.331Z,1.43
2022-10-16T13:39:28.734Z,1.50
2022-10-16T13:42:06.453Z,1.17
2022-10-16T13:44:43.931Z,1.30
2022-10-16T13:47:23.057Z,1.40
2022-10-16T13:50:15.095Z,1.30
2022-10-16T13:52:42.815Z,1.30
2022-10-16T13:55:14.798Z,1.20
2022-10-16T13:57:42.938Z,1.47
2022-10-16T14:00:31.313Z,1.50
2022-10-16T14:03:18.155Z,1.20
2022-10-16T14:05:57.949Z,1.23
2022-10-16T14:08:26.661Z,1.30
2022-10-16T14:10:59.364Z,1.27
2022-10-16T14:13:46.322Z,1.10
2022-10-16T14:16:22.231Z,1.10
2022-10-16T14:19:04.819Z,1.20
2022-10-16T14:21:33.011Z,1.20
2022-10-16T14:24:00.430Z,1.33
2022-10-16T14:26:29.024Z,1.10
2022-10-16T14:29:10.843Z,1.37
2022-10-16T14:31:38.486Z,1.07
2022-10-16T14:34:06.115Z,1.30
2022-10-16T14:36:35.271Z,1.47
2022-10-16T14:39:05.650Z,1.27
2022-10-16T14:41:36.476Z,1.20
2022-10-16T14:44:07.102Z,1.30
2022-10-16T14:51:29.799Z,1.77
2022-10-16T14:54:00.219Z,2.17
2022-10-16T14:56:33.328Z,2.00
2022-10-16T14:59:01.930Z,1.97
2022-10-16T15:01:28.907Z,2.10
2022-10-16T15:03:56.190Z,1.70
2022-10-16T15:06:23.313Z,1.70
2022-10-16T15:08:50.377Z,1.80
